Time;durP1;ratioP1;P1;durP2;ratioP2;P2;SDS_P1;SDS_P2;PMS_P1;PMS_P2;Temp;Humidity;BMP_temperature;BMP_pressure;BME280_temperature;BME280_humidity;BME280_pressure;Samples;Min_cycle;Max_cycle;Signal;HPM_P1;HPM_P2
2023/10/09 00:02:26;;;;;;;2.17;1.02;;;;;;;19.17;83.23;101616.94;20872773;28;20111;-70
2023/10/09 00:12:28;;;;;;;1.88;1.35;;;;;;;19.17;83.31;101606.16;20870975;28;20040;-70
2023/10/09 00:22:31;;;;;;;3.45;1.45;;;;;;;19.20;83.13;101600.50;20882515;28;20485;-70
2023/10/09 00:32:46;;;;;;;1.77;1.42;;;;;;;19.19;83.12;101587.97;20887221;28;20077;-70
2023/10/09 00:42:48;;;;;;;2.47;1.88;;;;;;;19.19;83.17;101566.38;20886278;28;20052;-70
2023/10/09 00:53:09;;;;;;;2.17;1.48;;;;;;;19.19;83.30;101550.19;20886009;28;20049;-70
2023/10/09 01:13:27;;;;;;;4.40;1.33;;;;;;;19.18;83.06;101515.22;20866939;28;20049;-70
2023/10/09 01:23:29;;;;;;;4.82;2.08;;;;;;;19.06;83.53;101491.00;20854025;28;20099;-70
2023/10/09 01:33:35;;;;;;;2.78;1.60;;;;;;;19.14;83.55;101503.84;20863971;28;20088;-70
2023/10/09 01:43:38;;;;;;;3.33;2.00;;;;;;;19.15;83.61;101489.38;20864477;28;20060;-70
2023/10/09 01:53:41;;;;;;;2.42;1.67;;;;;;;19.11;83.49;101469.03;20826710;28;20053;-70
2023/10/09 02:03:44;;;;;;;3.33;2.00;;;;;;;19.14;83.77;101466.06;20797022;28;20060;-70
2023/10/09 02:13:53;;;;;;;3.75;2.10;;;;;;;19.14;83.77;101455.25;20796105;28;20124;-70
2023/10/09 02:23:57;;;;;;;4.05;2.42;;;;;;;19.13;84.08;101442.75;20821349;28;20135;-70
2023/10/09 02:34:00;;;;;;;3.08;2.53;;;;;;;19.10;84.12;101422.28;20872965;28;20079;-70
2023/10/09 02:44:10;;;;;;;4.05;2.60;;;;;;;19.04;85.00;101428.19;20875643;28;20044;-70
2023/10/09 03:04:24;;;;;;;5.28;3.10;;;;;;;18.94;85.46;101387.63;20844999;28;20044;-70
2023/10/09 03:14:28;;;;;;;5.55;3.33;;;;;;;18.93;86.03;101385.91;20847235;28;20044;-70
2023/10/09 03:24:30;;;;;;;3.88;2.95;;;;;;;18.91;86.10;101360.91;20872807;28;20045;-70
2023/10/09 03:34:32;;;;;;;5.43;3.58;;;;;;;18.90;86.42;101377.25;20855153;28;20055;-70
2023/10/09 03:44:41;;;;;;;6.28;3.85;;;;;;;18.88;86.73;101353.06;20872037;28;20045;-70
2023/10/09 03:54:44;;;;;;;7.22;3.95;;;;;;;18.87;87.10;101359.47;20871773;28;20057;-70
2023/10/09 04:04:47;;;;;;;5.85;4.35;;;;;;;18.87;87.53;101367.56;20872986;28;20051;-70
2023/10/09 04:14:54;;;;;;;6.68;4.18;;;;;;;18.87;88.11;101381.03;20850600;28;20053;-70
2023/10/09 04:24:57;;;;;;;8.25;4.65;;;;;;;18.88;88.57;101390.84;20797772;28;20114;-70
2023/10/09 04:35:24;;;;;;;6.65;4.78;;;;;;;18.90;88.92;101383.47;20820523;28;20072;-70
2023/10/09 04:45:59;;;;;;;6.15;4.32;;;;;;;18.88;89.29;101390.84;20829632;28;20044;-70
2023/10/09 04:55:54;;;;;;;5.97;3.72;;;;;;;18.90;89.78;101383.47;20827218;28;20523;-71
2023/10/09 05:05:59;;;;;;;6.60;4.35;;;;;;;18.93;90.00;101387.75;20840295;28;20056;-70
2023/10/09 05:16:02;;;;;;;7.03;4.80;;;;;;;18.96;89.98;101380.25;20842577;28;20049;-70
2023/10/09 05:26:26;;;;;;;8.30;4.57;;;;;;;18.99;90.34;101384.56;20837769;28;20051;-70
2023/10/09 05:46:35;;;;;;;5.80;4.13;;;;;;;19.04;90.38;101406.63;20841984;28;20099;-70
2023/10/09 06:07:00;;;;;;;7.35;4.72;;;;;;;19.08;90.56;101416.16;20846780;28;20140;-70
2023/10/09 06:27:13;;;;;;;7.20;3.63;;;;;;;19.11;91.26;101423.97;20829964;28;20135;-70
2023/10/09 06:37:34;;;;;;;6.88;4.00;;;;;;;19.13;91.35;101416.59;20869659;28;20068;-70
2023/10/09 06:47:42;;;;;;;5.70;3.35;;;;;;;19.11;91.69;101402.41;20790957;28;20052;-67
2023/10/09 06:57:48;;;;;;;5.60;3.05;;;;;;;19.14;92.32;101406.69;20816318;28;20055;-67
2023/10/09 07:07:54;;;;;;;4.80;3.10;;;;;;;19.28;92.20;101427.94;20800517;28;20056;-68
2023/10/09 07:18:18;;;;;;;3.97;2.78;;;;;;;19.42;91.90;101409.66;20812071;28;20132;-69
2023/10/09 07:28:28;;;;;;;3.67;2.55;;;;;;;19.53;91.76;101408.72;20803830;28;20052;-69
2023/10/09 07:38:35;;;;;;;3.95;2.40;;;;;;;19.61;91.40;101392.69;20811077;28;20136;-70
2023/10/09 07:48:48;;;;;;;3.88;2.80;;;;;;;19.67;91.43;101380.50;20811489;28;20426;-69
2023/10/09 07:58:51;;;;;;;4.15;2.70;;;;;;;19.76;91.48;101384.25;20808491;28;20499;-70
2023/10/09 08:19:33;;;;;;;3.97;2.50;;;;;;;19.91;91.58;101426.13;20791262;28;20045;-70
2023/10/09 08:29:35;;;;;;;3.40;2.45;;;;;;;19.96;91.55;101482.47;20787837;28;20183;-70
2023/10/09 08:39:36;;;;;;;4.45;2.53;;;;;;;20.00;91.86;101486.63;20794832;28;20057;-69
2023/10/09 08:49:38;;;;;;;4.38;2.85;;;;;;;20.00;92.01;101489.31;20802468;28;20053;-69
2023/10/09 08:59:44;;;;;;;5.68;2.97;;;;;;;20.02;92.09;101514.38;20798762;28;20498;-70
2023/10/09 09:10:03;;;;;;;4.00;2.30;;;;;;;20.03;92.25;101499.84;20807698;28;20051;-70
2023/10/09 09:20:32;;;;;;;3.20;2.35;;;;;;;20.04;92.44;101506.09;20798686;28;20057;-68
2023/10/09 09:30:34;;;;;;;4.25;2.30;;;;;;;20.07;92.36;101482.38;20802358;28;20413;-67
2023/10/09 09:40:41;;;;;;;4.32;2.53;;;;;;;20.15;92.04;101506.03;20791748;28;20049;-68
2023/10/09 09:50:45;;;;;;;3.47;2.65;;;;;;;20.10;91.68;101490.22;20819861;28;20497;-68
2023/10/09 10:00:53;;;;;;;5.60;3.15;;;;;;;20.18;90.99;101507.59;20813641;28;20060;-68
2023/10/09 10:11:04;;;;;;;4.07;2.60;;;;;;;20.24;90.82;101517.84;20780016;28;20049;-69
2023/10/09 10:21:15;;;;;;;4.22;2.58;;;;;;;20.31;90.75;101500.06;20804017;28;20490;-68
2023/10/09 10:31:18;;;;;;;3.40;2.25;;;;;;;20.36;90.60;101495.13;20807930;28;20053;-68
2023/10/09 10:41:22;;;;;;;4.15;2.80;;;;;;;20.34;90.73;101513.34;20810455;28;20127;-68
2023/10/09 10:51:34;;;;;;;4.03;2.33;;;;;;;20.33;91.03;101527.00;20798613;28;20447;-69
2023/10/09 11:12:11;;;;;;;3.75;2.50;;;;;;;20.23;92.18;101530.53;20807626;28;20049;-68
2023/10/09 11:32:23;;;;;;;4.88;2.67;;;;;;;20.25;92.59;101547.47;20806652;28;20140;-67
2023/10/09 11:42:38;;;;;;;4.32;2.83;;;;;;;20.31;92.91;101540.63;20803610;28;20037;-67
2023/10/09 12:03:23;;;;;;;4.65;2.45;;;;;;;20.49;92.49;101538.13;20789178;28;20140;-70
2023/10/09 12:13:25;;;;;;;4.63;2.78;;;;;;;20.59;92.03;101532.75;20788779;28;20053;-70
2023/10/09 12:23:27;;;;;;;3.75;2.30;;;;;;;20.48;92.43;101522.06;20845086;28;20103;-70
2023/10/09 12:33:29;;;;;;;4.95;2.33;;;;;;;20.58;92.40;101515.69;20845191;28;20148;-68
2023/10/09 12:43:32;;;;;;;3.65;2.35;;;;;;;20.81;91.38;101506.50;20829054;28;20414;-69
2023/10/09 12:53:34;;;;;;;4.45;2.53;;;;;;;20.90;90.82;101519.19;20813408;28;20132;-70
2023/10/09 13:03:38;;;;;;;4.47;2.22;;;;;;;20.86;90.89;101512.34;20815750;28;20060;-70
2023/10/09 13:13:42;;;;;;;3.75;2.40;;;;;;;20.79;91.27;101511.19;20812605;28;20045;-70
2023/10/09 13:23:47;;;;;;;4.50;2.40;;;;;;;20.75;91.51;101507.00;20827991;28;20049;-70
2023/10/09 13:33:54;;;;;;;3.38;1.98;;;;;;;20.76;91.73;101511.41;20830116;28;20138;-70
2023/10/09 13:43:56;;;;;;;2.78;2.13;;;;;;;20.76;91.90;101508.72;20680617;28;20454;-70
2023/10/09 13:53:58;;;;;;;3.38;2.05;;;;;;;20.85;91.82;101521.47;20721982;28;20060;-70
2023/10/09 14:04:00;;;;;;;3.38;1.85;;;;;;;20.76;92.37;101527.66;20716431;28;21930;-70
2023/10/09 14:14:02;;;;;;;3.35;1.95;;;;;;;20.68;92.84;101526.50;20732322;28;20060;-60
2023/10/09 14:24:15;;;;;;;3.70;1.75;;;;;;;20.71;93.13;101536.22;20714107;28;20057;-60
2023/10/09 14:34:21;;;;;;;4.28;1.80;;;;;;;20.79;93.03;101522.84;20733471;28;20061;-64
2023/10/09 14:44:27;;;;;;;2.28;1.70;;;;;;;20.81;92.78;101526.28;20745192;28;20516;-65
2023/10/09 14:54:29;;;;;;;3.10;1.55;;;;;;;20.80;92.52;101534.56;20738949;28;20514;-65
2023/10/09 15:04:35;;;;;;;2.63;1.73;;;;;;;20.66;93.02;101552.00;20745941;28;20497;-66
2023/10/09 15:14:39;;;;;;;2.05;1.50;;;;;;;20.53;93.53;101549.56;20728414;28;20577;-66
2023/10/09 15:24:41;;;;;;;3.07;1.80;;;;;;;20.50;93.88;101544.41;20722176;28;20061;-63
2023/10/09 15:34:43;;;;;;;3.10;1.50;;;;;;;20.49;93.97;101548.13;20734820;28;20049;-65
2023/10/09 15:44:47;;;;;;;3.25;1.80;;;;;;;20.40;95.89;101550.66;20717183;28;20537;-71
2023/10/09 15:54:49;;;;;;;3.03;1.70;;;;;;;20.39;96.34;101567.88;20710558;28;20045;-67
2023/10/09 16:04:52;;;;;;;3.65;2.70;;;;;;;20.46;100.00;101564.63;20725358;28;20057;-69
2023/10/09 16:14:54;;;;;;;6.80;3.92;;;;;;;20.52;100.00;101574.88;20740170;28;20523;-67
2023/10/09 16:25:09;;;;;;;5.40;2.60;;;;;;;20.66;100.00;101588.03;20718850;28;20140;-66
2023/10/09 16:35:11;;;;;;;3.57;2.03;;;;;;;20.78;100.00;101606.88;20722703;28;20080;-66
2023/10/09 16:45:15;;;;;;;3.47;1.83;;;;;;;20.76;100.00;101619.66;20720272;28;20052;-64
2023/10/09 16:55:19;;;;;;;2.40;1.40;;;;;;;20.72;100.00;101630.75;20723604;28;20054;-66
2023/10/09 17:05:28;;;;;;;7.20;2.07;;;;;;;20.60;100.00;101642.69;20763246;28;20057;-67
2023/10/09 17:15:36;;;;;;;3.30;1.38;;;;;;;20.56;100.00;101662.88;20824803;28;20050;-66
2023/10/09 17:25:44;;;;;;;2.25;1.63;;;;;;;20.50;100.00;101664.25;20792079;28;20855;-67
2023/10/09 17:35:46;;;;;;;3.80;1.60;;;;;;;20.44;99.35;101667.50;20739611;28;20535;-67
2023/10/09 17:45:53;;;;;;;2.70;1.58;;;;;;;20.37;99.10;101661.81;20734988;28;20095;-68
2023/10/09 17:55:55;;;;;;;2.28;1.17;;;;;;;20.28;98.62;101659.88;20740081;28;20057;-68
2023/10/09 18:05:59;;;;;;;2.25;1.33;;;;;;;20.34;98.77;101683.72;20744971;28;20052;-69
2023/10/09 18:16:11;;;;;;;1.98;1.33;;;;;;;20.28;98.86;101668.88;20750430;28;20406;-69
2023/10/09 18:26:13;;;;;;;2.00;1.40;;;;;;;20.27;98.64;101679.81;20755439;28;20572;-67
2023/10/09 18:36:17;;;;;;;2.33;1.40;;;;;;;20.24;98.25;101669.25;20746795;28;20049;-69
2023/10/09 18:46:19;;;;;;;1.93;1.40;;;;;;;20.24;98.22;101669.25;20741380;28;20053;-68
2023/10/09 18:56:22;;;;;;;3.00;1.30;;;;;;;20.22;97.95;101692.88;20768417;28;20115;-68
2023/10/09 19:06:24;;;;;;;2.67;1.15;;;;;;;20.20;97.57;101702.97;20756284;28;20046;-69
2023/10/09 19:16:27;;;;;;;1.85;1.30;;;;;;;20.18;97.37;101697.69;20736612;28;20049;-67
2023/10/09 19:26:33;;;;;;;2.67;1.45;;;;;;;20.20;96.78;101694.84;20787095;28;20054;-68
2023/10/09 19:36:37;;;;;;;2.72;1.30;;;;;;;20.16;96.56;101702.38;20765184;28;20056;-69
2023/10/09 19:46:39;;;;;;;1.70;0.90;;;;;;;20.14;96.45;101702.50;20743562;28;20494;-69
2023/10/09 19:56:42;;;;;;;1.60;0.98;;;;;;;20.13;96.27;101703.50;20840513;28;20048;-68
2023/10/09 20:06:45;;;;;;;1.70;1.23;;;;;;;20.08;96.17;101705.72;20804789;28;20527;-68
2023/10/09 20:16:48;;;;;;;2.17;1.20;;;;;;;20.01;96.10;101712.66;20790457;28;20053;-68
2023/10/09 20:26:50;;;;;;;2.03;1.20;;;;;;;19.95;95.87;101721.28;20790069;28;20053;-68
2023/10/09 20:36:55;;;;;;;2.33;1.10;;;;;;;19.93;95.96;101715.16;20796883;28;20049;-68
2023/10/09 20:46:57;;;;;;;3.70;1.35;;;;;;;19.87;96.39;101716.50;20805581;28;20049;-68
2023/10/09 20:57:00;;;;;;;2.42;1.30;;;;;;;19.84;96.25;101714.88;20803985;28;20045;-68
2023/10/09 21:07:03;;;;;;;3.03;1.50;;;;;;;19.78;99.91;101712.72;20814363;28;20052;-68
2023/10/09 21:17:04;;;;;;;2.85;1.35;;;;;;;19.77;100.00;101711.00;20885113;28;20075;-68
2023/10/09 21:27:06;;;;;;;2.15;1.48;;;;;;;19.76;100.00;101728.19;20884682;28;20040;-67
2023/10/09 21:37:09;;;;;;;4.72;1.70;;;;;;;19.75;100.00;101721.06;20883710;28;20456;-68
2023/10/09 21:47:11;;;;;;;3.75;1.85;;;;;;;19.73;100.00;101725.75;20882243;28;20056;-68
2023/10/09 21:57:13;;;;;;;2.58;1.60;;;;;;;19.71;100.00;101711.50;20881852;28;20519;-68
2023/10/09 22:07:16;;;;;;;3.72;1.73;;;;;;;19.59;100.00;101699.03;20881406;28;20504;-68
2023/10/09 22:17:33;;;;;;;3.10;1.30;;;;;;;19.67;100.00;101715.47;20880772;28;20079;-68
2023/10/09 22:27:35;;;;;;;2.90;1.35;;;;;;;19.66;100.00;101716.44;20880087;28;20049;-68
2023/10/09 22:37:37;;;;;;;2.05;1.50;;;;;;;19.64;99.92;101702.22;20811165;28;20054;-68
2023/10/09 22:47:42;;;;;;;2.00;1.08;;;;;;;19.61;99.70;101695.22;20796186;28;20563;-68
2023/10/09 22:57:44;;;;;;;3.85;1.58;;;;;;;19.60;99.44;101703.47;20852764;28;20425;-68
2023/10/09 23:07:58;;;;;;;1.77;1.23;;;;;;;19.59;99.50;101701.75;20876758;28;20045;-68
2023/10/09 23:18:43;;;;;;;1.33;1.20;;;;;;;19.55;99.38;101688.50;20876415;28;20483;-68
2023/10/09 23:28:38;;;;;;;1.80;1.15;;;;;;;19.51;99.27;101683.47;20871596;28;20056;-68
2023/10/09 23:49:00;;;;;;;2.15;1.40;;;;;;;19.50;99.09;101688.03;20874469;28;20555;-68
2023/10/09 23:59:05;;;;;;;1.73;1.10;;;;;;;19.49;99.01;101694.41;20821369;28;20049;-67
